Flight Track Log - Related Links

Times and Time Zones

All times are in EDT time to prevent confusion due to time zone crossing. See the LOF3379 flight status page for this flight to view local times or setup timezone preferences in your user account.


Time Position Orientation Groundspeed Altitude Reporting Facility
EDT Latitude Longitude Course Direction KTS MPH feet Rate Location/Type
Sun 10:08:06 AM 39.8975 -84.2444 328° Northwest 152 175 1,500  Level Indianapolis Center
Sun 10:09:13 AM 39.8856 -84.3161 258° West 206 237 3,400 1,755 Climbing Indianapolis Center
Sun 10:10:33 AM 39.9192 -84.4069 296° West 260 299 5,800 1,944 Climbing Indianapolis Center
Sun 10:11:00 AM 40.2041 -84.4874 323° Northwest  Level FlightAware Approximate
Sun 10:11:35 AM 39.9811 -84.4539 330° Northwest 257 296 8,000  Level Indianapolis Center
Sun 10:12:00 AM 40.2808 -84.5561 326° Northwest  Level FlightAware Approximate
Sun 10:12:36 AM 40.0469 -84.5025 331° Northwest 263 303 10,000  Level Indianapolis Center
Sun 10:13:00 AM 40.3582 -84.6235 328° Northwest  Level FlightAware Approximate
Sun 10:13:38 AM 40.1203 -84.5542 332° Northwest 283 326 11,000  Level Indianapolis Center
Sun 10:14:40 AM 40.1989 -84.6114 331° Northwest 312 359 12,800 1,645 Climbing Indianapolis Center
Sun 10:15:42 AM 40.2756 -84.6672 331° Northwest 312 359 14,400 1,597 Climbing Indianapolis Center
Sun 10:16:44 AM 40.3650 -84.7319 331° Northwest 314 361 16,100 1,548 Climbing Indianapolis Center
Sun 10:17:46 AM 40.4411 -84.7875 331° Northwest 310 357 17,600 1,366 Climbing Indianapolis Center
Sun 10:18:47 AM 40.5156 -84.8433 330° Northwest 307 353 18,900 1,171 Climbing Indianapolis Center
Sun 10:19:49 AM 40.5889 -84.8975 331° Northwest 301 346 20,000 710 Climbing Indianapolis Center
Sun 10:20:20 AM 40.6336 -84.9303 331° Northwest 308 354 20,000  Level Chicago Center
Sun 10:21:22 AM 40.7028 -85.0169 316° Northwest 342 394 20,000  Level Chicago Center
Sun 10:22:24 AM 40.7625 -85.1200 307° West 354 407 20,000  Level Chicago Center
Sun 10:23:26 AM 40.8244 -85.2264 308° West 364 419 20,000  Level Chicago Center
Sun 10:24:28 AM 40.8875 -85.3353 307° West 371 427 20,000  Level Chicago Center
Sun 10:25:30 AM 40.9503 -85.4469 307° West 374 430 20,000  Level Chicago Center
Sun 10:26:32 AM 41.0133 -85.5583 307° West 376 433 20,000  Level Chicago Center
Sun 10:27:34 AM 41.0803 -85.6975 303° West 373 429 20,000  Level Chicago Center
Sun 10:28:36 AM 41.1222 -85.8247 294° West 375 432 20,000  Level Chicago Center
Sun 10:29:38 AM 41.1633 -85.9511 293° West 374 430 20,000  Level Chicago Center
Sun 10:30:40 AM 41.2058 -86.0786 294° West 376 433 20,000  Level Chicago Center
Sun 10:31:42 AM 41.2461 -86.2042 293° West 373 429 20,000  Level Chicago Center
Sun 10:32:44 AM 41.2861 -86.3300 293° West 370 426 20,000  Level Chicago Center
Sun 10:33:46 AM 41.3292 -86.4564 294° West 373 429 20,000 -677 Level Chicago Center
Sun 10:34:48 AM 41.3781 -86.6125 293° West 378 435 18,600 -1,355 Descending Chicago Center
Sun 10:35:50 AM 41.4200 -86.7386 294° West 386 444 17,200 -1,403 Descending Chicago Center
Sun 10:36:52 AM 41.4608 -86.8614 294° West 372 428 15,700 -1,452 Descending Chicago Center
Sun 10:37:54 AM 41.4989 -86.9850 292° West 366 421 14,200 -1,645 Descending Chicago Center
Sun 10:38:56 AM 41.5472 -87.1350 293° West 368 423 12,300 -1,065 Descending Chicago Center
Sun 10:39:58 AM 41.5861 -87.2528 294° West 358 412 12,000 -484 Descending Chicago Center
Sun 10:41:00 AM 41.6464 -87.3494 310° West 343 395 11,300 -919 Descending Chicago Center
Sun 10:42:02 AM 41.7008 -87.4408 309° West 321 369 10,100 -1,306 Descending Chicago Center
Sun 10:43:04 AM 41.7478 -87.5175 309° West 274 315 8,600 -1,500 Descending Chicago Center
Sun 10:44:06 AM 41.8017 -87.6086 308° West 265 305 7,000 -774 Descending Chicago Center
Sun 10:45:08 AM 41.8467 -87.6822 309° West 260 299 7,000  Level Chicago Center
Sun 10:46:10 AM 41.8967 -87.7258 327° Northwest 246 283 7,000 -435 Level Chicago Center
Sun 10:47:12 AM 41.9600 -87.7269 359° North 232 267 6,100 -1,548 Descending Chicago Center
Sun 10:48:14 AM 42.0228 -87.7228 North 228 262 3,800 -2,226 Descending Chicago Center

Login

Don't have an account? Register now (free) for customized features, flight alerts, and more!